Time;durP1;ratioP1;P1;durP2;ratioP2;P2;SDS_P1;SDS_P2;PMS_P1;PMS_P2;Temp;Humidity;BMP_temperature;BMP_pressure;BME280_temperature;BME280_humidity;BME280_pressure;Samples;Min_cycle;Max_cycle;Signal;HPM_P1;HPM_P2
2022/03/08 00:01:36;;;;;;;2.88;2.33;;;15.90;38.10;15.00;102191.00;;;;5054906;28;20116;-72
2022/03/08 00:04:24;;;;;;;3.38;2.17;;;15.90;38.10;15.00;102188.00;;;;5045857;28;20040;-72
2022/03/08 00:07:10;;;;;;;3.80;2.60;;;15.90;38.10;15.00;102188.00;;;;5050502;28;20045;-72
2022/03/08 00:09:56;;;;;;;3.05;2.30;;;15.90;38.10;15.00;102192.00;;;;5060136;28;20045;-72
2022/03/08 00:12:43;;;;;;;3.70;2.30;;;15.90;38.10;15.00;102178.00;;;;5062338;28;20107;-72
2022/03/08 00:15:29;;;;;;;3.50;2.60;;;15.90;38.10;15.00;102167.00;;;;5058821;28;20082;-72
2022/03/08 00:18:17;;;;;;;2.65;2.40;;;15.90;38.10;15.00;102159.00;;;;5059220;28;20044;-73
2022/03/08 00:21:03;;;;;;;2.72;2.40;;;15.90;38.10;15.00;102164.00;;;;5057590;28;20048;-72
2022/03/08 00:23:49;;;;;;;2.72;2.15;;;15.90;38.10;15.00;102156.00;;;;5047421;28;20036;-72
2022/03/08 00:26:35;;;;;;;3.10;2.35;;;15.90;38.10;15.00;102162.00;;;;5038650;28;20045;-72
2022/03/08 00:29:21;;;;;;;2.78;2.35;;;15.90;38.10;15.00;102154.00;;;;5065157;28;20040;-72
2022/03/08 00:32:08;;;;;;;3.15;2.63;;;15.90;38.10;15.00;102156.00;;;;5055718;28;20401;-72
2022/03/08 00:34:54;;;;;;;2.88;2.17;;;15.90;38.10;15.00;102155.00;;;;5046664;28;20125;-72
2022/03/08 00:37:40;;;;;;;3.90;2.38;;;15.90;38.10;15.00;102144.00;;;;5061090;28;20040;-72
2022/03/08 00:40:26;;;;;;;3.72;2.53;;;15.90;38.00;15.00;102149.00;;;;5055472;28;20091;-72
2022/03/08 00:43:12;;;;;;;7.50;3.10;;;15.90;38.00;15.00;102141.00;;;;5059972;28;20044;-72
2022/03/08 00:45:58;;;;;;;4.00;2.83;;;15.90;38.00;15.00;102142.00;;;;5055047;28;20115;-72
2022/03/08 00:48:44;;;;;;;4.05;2.92;;;15.90;38.00;15.00;102144.00;;;;5049824;28;20040;-72
2022/03/08 00:51:30;;;;;;;3.35;2.63;;;15.90;38.00;15.00;102139.00;;;;5055379;28;20639;-72
2022/03/08 00:54:16;;;;;;;4.38;3.15;;;15.90;38.00;15.00;102140.00;;;;5047583;28;20036;-72
2022/03/08 00:57:04;;;;;;;3.58;2.90;;;15.90;37.90;15.00;102132.00;;;;5039815;28;20558;-73
2022/03/08 00:59:50;;;;;;;4.18;2.55;;;15.90;37.90;15.00;102132.00;;;;5050754;28;20053;-72
2022/03/08 01:02:36;;;;;;;3.83;2.92;;;15.90;37.90;15.00;102134.00;;;;5056746;28;20841;-72
2022/03/08 01:05:22;;;;;;;5.43;3.75;;;15.90;37.80;15.00;102131.00;;;;5057542;28;20048;-72
2022/03/08 01:08:09;;;;;;;4.30;3.10;;;15.90;37.90;15.00;102119.00;;;;5041903;28;20115;-72
2022/03/08 01:10:55;;;;;;;3.75;3.03;;;15.90;37.90;15.00;102118.00;;;;5031999;28;20055;-72
2022/03/08 01:13:41;;;;;;;3.78;3.05;;;15.90;37.80;15.00;102110.00;;;;5054504;28;20045;-72
2022/03/08 01:16:27;;;;;;;4.05;3.25;;;15.90;37.80;15.00;102103.00;;;;5063726;28;20045;-72
2022/03/08 01:19:13;;;;;;;5.40;3.25;;;15.90;37.80;15.00;102111.00;;;;5058531;28;20109;-72
2022/03/08 01:21:59;;;;;;;5.28;3.05;;;15.90;37.80;15.00;102107.00;;;;5058542;28;20048;-72
2022/03/08 01:24:45;;;;;;;4.30;3.65;;;15.90;37.80;15.00;102100.00;;;;5061678;28;20097;-72
2022/03/08 01:27:31;;;;;;;4.75;3.60;;;15.90;37.80;15.00;102092.00;;;;5054836;28;20479;-72
2022/03/08 01:30:20;;;;;;;6.15;3.30;;;15.90;37.80;15.00;102105.00;;;;5060663;28;20044;-72
2022/03/08 01:33:06;;;;;;;5.15;3.30;;;15.90;37.80;15.00;102104.00;;;;5039372;28;20049;-72
2022/03/08 01:35:52;;;;;;;5.18;3.53;;;15.90;37.80;15.00;102098.00;;;;5057014;28;20045;-72
2022/03/08 01:38:39;;;;;;;4.63;3.60;;;15.90;37.80;15.00;102091.00;;;;5044695;28;20052;-72
2022/03/08 01:41:25;;;;;;;5.70;3.65;;;15.90;37.80;15.00;102095.00;;;;5060804;28;20040;-72
2022/03/08 01:44:11;;;;;;;4.03;3.42;;;15.90;37.80;15.00;102093.00;;;;5043605;28;20041;-72
2022/03/08 01:46:57;;;;;;;4.53;3.78;;;15.90;37.80;15.00;102088.00;;;;5051721;28;20047;-72
2022/03/08 01:49:43;;;;;;;5.57;3.72;;;15.90;37.70;15.00;102089.00;;;;5057530;28;20047;-72
2022/03/08 01:52:29;;;;;;;5.28;3.85;;;15.90;37.80;15.00;102099.00;;;;5055200;28;20041;-72
2022/03/08 01:55:15;;;;;;;5.05;3.53;;;15.90;37.80;15.00;102097.00;;;;5040652;28;20049;-72
2022/03/08 01:58:02;;;;;;;5.10;3.50;;;15.90;37.80;15.00;102097.00;;;;5045400;28;20588;-72
2022/03/08 02:00:48;;;;;;;5.93;3.95;;;15.80;37.70;15.00;102103.00;;;;5051097;28;20460;-72
2022/03/08 02:03:34;;;;;;;5.30;4.07;;;15.90;37.80;15.00;102102.00;;;;5056195;28;20045;-72
2022/03/08 02:06:20;;;;;;;4.68;3.70;;;15.90;37.80;15.00;102104.00;;;;5036387;28;20382;-72
2022/03/08 02:09:06;;;;;;;5.10;4.10;;;15.90;37.90;15.00;102098.00;;;;5040919;28;20410;-72
2022/03/08 02:11:52;;;;;;;6.20;4.32;;;15.90;37.80;15.00;102103.00;;;;5051410;28;20033;-72
2022/03/08 02:14:41;;;;;;;5.47;4.00;;;15.90;37.90;15.00;102094.00;;;;5051896;28;20454;-72
2022/03/08 02:17:27;;;;;;;4.43;3.63;;;15.90;37.80;15.00;102087.00;;;;5037312;28;20044;-72
2022/03/08 02:20:13;;;;;;;5.50;3.83;;;15.90;37.90;15.00;102091.00;;;;5052740;28;20143;-72
2022/03/08 02:23:00;;;;;;;5.55;3.80;;;15.90;37.90;15.00;102088.00;;;;5037025;28;20139;-72
2022/03/08 02:25:46;;;;;;;5.07;4.05;;;15.90;37.90;15.00;102088.00;;;;5052526;28;20207;-72
2022/03/08 02:28:32;;;;;;;5.32;3.58;;;15.90;37.90;15.00;102082.00;;;;5056806;28;20048;-72
2022/03/08 02:31:18;;;;;;;4.72;4.20;;;15.80;37.80;14.90;102090.00;;;;5057124;28;20048;-72
2022/03/08 02:34:04;;;;;;;5.28;3.90;;;15.80;37.90;14.90;102081.00;;;;5057481;28;20052;-72
2022/03/08 02:37:07;;;;;;;5.43;4.25;;;15.80;37.90;14.90;102089.00;;;;5041246;28;20040;-72
2022/03/08 02:39:54;;;;;;;5.47;4.07;;;15.80;37.90;14.90;102078.00;;;;5030235;28;20119;-72
2022/03/08 02:42:40;;;;;;;6.85;4.32;;;15.60;37.80;14.90;102082.00;;;;5050098;28;20560;-72
2022/03/08 02:45:26;;;;;;;5.53;3.95;;;15.80;37.90;14.90;102067.00;;;;5040506;28;20070;-72
2022/03/08 02:48:12;;;;;;;5.45;4.40;;;15.80;37.90;14.90;102066.00;;;;5037717;28;20052;-72
2022/03/08 02:50:58;;;;;;;5.38;4.15;;;15.80;37.90;14.90;102070.00;;;;5056423;28;20044;-72
2022/03/08 02:53:44;;;;;;;5.18;3.92;;;15.80;37.90;14.90;102066.00;;;;5055316;28;20036;-72
2022/03/08 02:56:30;;;;;;;7.82;5.03;;;15.80;37.90;14.90;102075.00;;;;5062156;28;20048;-72
2022/03/08 02:59:23;;;;;;;7.28;5.15;;;15.80;37.90;14.90;102073.00;;;;5057549;28;20044;-72
2022/03/08 03:02:09;;;;;;;5.72;4.13;;;15.80;38.00;14.90;102067.00;;;;5055872;28;20128;-72
2022/03/08 03:04:55;;;;;;;4.85;3.90;;;15.70;37.90;14.90;102071.00;;;;5058843;28;20040;-72
2022/03/08 03:07:41;;;;;;;6.10;4.43;;;15.80;38.00;14.90;102065.00;;;;5055657;28;20045;-72
2022/03/08 03:10:27;;;;;;;5.72;4.45;;;15.70;38.00;14.90;102069.00;;;;5042131;28;20049;-72
2022/03/08 03:13:13;;;;;;;6.25;4.18;;;15.70;37.90;14.90;102068.00;;;;5057010;28;20044;-72
2022/03/08 03:15:59;;;;;;;5.00;3.97;;;15.80;38.00;14.80;102057.00;;;;5056298;28;20036;-72
2022/03/08 03:18:45;;;;;;;5.65;4.30;;;15.80;38.00;14.80;102051.00;;;;5058270;28;20044;-72
2022/03/08 03:21:31;;;;;;;5.55;4.22;;;15.70;37.90;14.80;102052.00;;;;5060466;28;20036;-72
2022/03/08 03:24:18;;;;;;;5.75;4.35;;;15.70;37.90;14.80;102050.00;;;;5050124;28;20574;-72
2022/03/08 03:27:04;;;;;;;4.78;3.92;;;15.70;37.90;14.90;102056.00;;;;5059082;28;20054;-72
2022/03/08 03:29:50;;;;;;;4.93;3.85;;;15.70;37.90;14.80;102045.00;;;;5065574;28;20478;-72
2022/03/08 03:32:36;;;;;;;5.55;4.47;;;15.70;37.90;14.80;102041.00;;;;5062851;28;20045;-72
2022/03/08 03:35:22;;;;;;;5.47;3.90;;;15.80;38.00;14.80;102040.00;;;;5064388;28;20052;-72
2022/03/08 03:38:08;;;;;;;4.93;4.20;;;15.70;38.60;14.80;102039.00;;;;5061255;28;20498;-72
2022/03/08 03:40:54;;;;;;;5.38;3.85;;;15.80;38.00;14.80;102043.00;;;;5057684;28;20052;-72
2022/03/08 03:43:40;;;;;;;5.75;4.07;;;15.70;37.90;14.80;102055.00;;;;5058067;28;20375;-72
2022/03/08 03:46:26;;;;;;;6.10;4.68;;;15.70;38.60;14.80;102047.00;;;;5055070;28;20408;-72
2022/03/08 03:49:12;;;;;;;4.63;3.65;;;15.70;37.90;14.80;102045.00;;;;5064359;28;20044;-72
2022/03/08 03:51:58;;;;;;;4.40;3.92;;;15.70;37.90;14.80;102049.00;;;;5058917;28;20072;-72
2022/03/08 03:54:44;;;;;;;4.60;3.92;;;15.70;38.60;14.80;102051.00;;;;5061378;28;20036;-72
2022/03/08 03:57:30;;;;;;;5.07;3.88;;;15.70;37.90;14.80;102051.00;;;;5064689;28;20052;-73
2022/03/08 04:00:16;;;;;;;5.15;3.80;;;15.70;37.90;14.80;102044.00;;;;5044653;28;20215;-72
2022/03/08 04:03:03;;;;;;;5.00;4.13;;;15.70;38.00;14.80;102042.00;;;;5048109;28;20044;-73
2022/03/08 04:05:49;;;;;;;5.72;3.95;;;15.70;37.90;14.80;102037.00;;;;5051225;28;20405;-72
2022/03/08 04:08:35;;;;;;;4.97;3.97;;;15.70;37.90;14.80;102041.00;;;;5065248;28;20044;-72
2022/03/08 04:11:21;;;;;;;5.57;3.85;;;15.70;38.00;14.80;102045.00;;;;5043752;28;20045;-72
2022/03/08 04:14:07;;;;;;;7.28;4.05;;;15.70;37.90;14.80;102047.00;;;;5057702;28;20048;-72
2022/03/08 04:16:53;;;;;;;4.50;3.78;;;15.70;37.90;14.80;102049.00;;;;5058451;28;20041;-72
2022/03/08 04:19:40;;;;;;;5.93;3.65;;;15.70;38.00;14.80;102045.00;;;;5054712;28;20449;-72
2022/03/08 04:22:26;;;;;;;4.63;3.70;;;15.70;37.90;14.80;102048.00;;;;5058617;28;20036;-72
2022/03/08 04:25:12;;;;;;;4.68;3.90;;;15.70;37.90;14.80;102052.00;;;;5055646;28;20111;-72
2022/03/08 04:27:58;;;;;;;5.05;3.78;;;15.70;38.00;14.80;102049.00;;;;5026755;28;20232;-72
2022/03/08 04:30:44;;;;;;;4.13;3.13;;;15.60;38.00;14.80;102052.00;;;;5054362;28;20467;-72
2022/03/08 04:33:30;;;;;;;5.22;4.00;;;15.60;38.00;14.70;102047.00;;;;5062879;28;20048;-72
2022/03/08 04:36:16;;;;;;;5.20;3.67;;;15.70;38.00;14.70;102042.00;;;;5061065;28;20398;-72
2022/03/08 04:39:03;;;;;;;5.63;4.00;;;15.60;38.00;14.70;102040.00;;;;5065225;28;20478;-72
2022/03/08 04:41:49;;;;;;;5.50;3.95;;;15.60;38.00;14.70;102047.00;;;;5039954;28;20398;-72
2022/03/08 04:44:35;;;;;;;4.47;3.80;;;15.60;38.00;14.70;102044.00;;;;5053987;28;20047;-73
2022/03/08 04:47:21;;;;;;;3.90;3.17;;;15.60;37.90;14.70;102047.00;;;;5059938;28;20052;-72
2022/03/08 04:50:09;;;;;;;5.97;3.72;;;15.60;37.90;14.70;102052.00;;;;5058362;28;20040;-72
2022/03/08 04:52:55;;;;;;;4.40;3.42;;;15.60;38.00;14.70;102047.00;;;;5033954;28;20481;-72
2022/03/08 04:55:41;;;;;;;4.88;3.40;;;15.60;37.90;14.70;102044.00;;;;5057830;28;20463;-72
2022/03/08 04:58:27;;;;;;;4.35;3.42;;;15.60;37.90;14.70;102049.00;;;;5063237;28;20044;-72
2022/03/08 05:01:14;;;;;;;3.75;3.35;;;15.60;37.90;14.70;102049.00;;;;5054777;28;20412;-72
2022/03/08 05:04:00;;;;;;;4.35;3.40;;;15.60;37.90;14.70;102050.00;;;;5060169;28;20147;-72
2022/03/08 05:06:47;;;;;;;3.35;2.83;;;15.60;37.90;14.70;102062.00;;;;5050013;28;20037;-72
2022/03/08 05:09:33;;;;;;;4.07;3.03;;;15.60;37.90;14.70;102052.00;;;;5041595;28;20059;-72
2022/03/08 05:12:19;;;;;;;3.55;3.03;;;15.60;37.90;14.70;102052.00;;;;5055394;28;20430;-72
2022/03/08 05:15:06;;;;;;;5.10;3.70;;;15.60;37.90;14.70;102053.00;;;;5054544;28;20037;-72
2022/03/08 05:17:52;;;;;;;4.03;3.33;;;15.60;37.90;14.70;102043.00;;;;5028383;28;20102;-72
2022/03/08 05:20:38;;;;;;;3.67;2.85;;;15.60;37.90;14.70;102051.00;;;;5040336;28;20134;-72
2022/03/08 05:23:24;;;;;;;4.47;3.50;;;15.60;37.90;14.70;102050.00;;;;5060746;28;20509;-72
2022/03/08 05:26:10;;;;;;;4.10;3.50;;;15.60;37.80;14.70;102045.00;;;;5050431;28;20498;-72
2022/03/08 05:28:56;;;;;;;3.50;3.20;;;15.60;37.80;14.70;102039.00;;;;5063960;28;20036;-72
2022/03/08 05:31:43;;;;;;;6.32;3.28;;;15.60;37.80;14.70;102042.00;;;;5054764;28;20037;-72
2022/03/08 05:34:29;;;;;;;3.85;3.28;;;15.60;37.80;14.70;102038.00;;;;5058598;28;20048;-72
2022/03/08 05:37:15;;;;;;;5.00;3.45;;;15.60;37.70;14.70;102039.00;;;;5056682;28;20051;-72
2022/03/08 05:40:01;;;;;;;3.40;2.97;;;15.60;37.70;14.70;102042.00;;;;5055754;28;20051;-72
2022/03/08 05:42:47;;;;;;;3.58;2.97;;;15.60;37.70;14.70;102044.00;;;;5056049;28;20263;-72
2022/03/08 05:45:33;;;;;;;3.67;2.83;;;15.60;37.70;14.70;102052.00;;;;5054732;28;20052;-72
2022/03/08 05:48:19;;;;;;;4.10;2.85;;;15.60;37.70;14.70;102048.00;;;;5058354;28;20470;-72
2022/03/08 05:51:05;;;;;;;3.13;2.78;;;15.60;37.60;14.70;102044.00;;;;5057823;28;20041;-72
2022/03/08 05:53:51;;;;;;;3.20;2.72;;;15.60;37.60;14.70;102040.00;;;;5037481;28;20136;-72
2022/03/08 05:56:38;;;;;;;4.80;3.20;;;15.60;37.60;14.70;102049.00;;;;5057126;28;20064;-72
2022/03/08 05:59:24;;;;;;;4.13;3.20;;;15.60;37.60;14.70;102039.00;;;;5056608;28;20048;-72
2022/03/08 06:02:10;;;;;;;3.10;2.70;;;15.60;37.60;14.70;102047.00;;;;5058253;28;20045;-72
2022/03/08 06:04:56;;;;;;;3.63;2.65;;;15.60;37.60;14.70;102048.00;;;;5053458;28;20147;-73
2022/03/08 06:07:42;;;;;;;3.92;2.85;;;15.60;37.60;14.70;102055.00;;;;5049136;28;20036;-72
2022/03/08 06:10:28;;;;;;;3.65;2.60;;;15.60;37.60;14.70;102058.00;;;;5059777;28;20051;-72
2022/03/08 06:13:14;;;;;;;3.30;2.65;;;15.60;38.30;14.70;102052.00;;;;5054258;28;20048;-72
2022/03/08 06:16:00;;;;;;;3.88;2.90;;;15.60;37.50;14.70;102056.00;;;;5040771;28;20353;-72
2022/03/08 06:18:46;;;;;;;3.25;2.70;;;15.60;37.50;14.70;102056.00;;;;5056166;28;20051;-72
2022/03/08 06:21:32;;;;;;;4.40;2.90;;;15.60;37.50;14.70;102054.00;;;;5059166;28;20394;-73
2022/03/08 06:24:18;;;;;;;3.30;2.95;;;15.60;37.50;14.70;102059.00;;;;5057922;28;20482;-72
2022/03/08 06:27:04;;;;;;;3.30;2.80;;;15.60;37.50;14.70;102057.00;;;;5056897;28;20086;-72
2022/03/08 06:29:53;;;;;;;2.75;2.55;;;15.60;37.50;14.70;102054.00;;;;5040864;28;20040;-72
2022/03/08 06:32:39;;;;;;;4.35;2.88;;;15.60;37.40;14.70;102055.00;;;;5055648;28;20032;-72
2022/03/08 06:35:26;;;;;;;3.88;2.70;;;15.60;37.40;14.70;102061.00;;;;5056682;28;20052;-72
2022/03/08 06:38:12;;;;;;;4.32;2.95;;;15.60;37.40;14.70;102061.00;;;;5040983;28;20155;-72
2022/03/08 06:40:58;;;;;;;5.60;2.97;;;15.60;37.40;14.70;102063.00;;;;5057091;28;20063;-72
2022/03/08 06:43:44;;;;;;;2.92;2.63;;;15.60;37.40;14.70;102061.00;;;;5043738;28;20116;-72
2022/03/08 06:46:30;;;;;;;3.90;2.80;;;15.60;37.40;14.70;102059.00;;;;5051714;28;20044;-73
2022/03/08 06:49:16;;;;;;;3.47;2.78;;;15.60;37.40;14.70;102061.00;;;;5044457;28;20041;-72
2022/03/08 06:52:03;;;;;;;3.30;2.65;;;15.70;37.40;14.70;102072.00;;;;5057177;28;20032;-72
2022/03/08 06:54:49;;;;;;;4.38;3.15;;;15.60;37.40;14.70;102072.00;;;;5040401;28;20049;-72
2022/03/08 06:57:35;;;;;;;3.40;2.83;;;15.60;37.30;14.70;102072.00;;;;5042342;28;20048;-72
2022/03/08 07:00:21;;;;;;;3.13;2.50;;;15.60;37.30;14.70;102067.00;;;;5049808;28;20048;-72
2022/03/08 07:03:07;;;;;;;3.63;2.75;;;15.60;37.30;14.70;102071.00;;;;5040276;28;20092;-72
2022/03/08 07:05:53;;;;;;;4.10;2.50;;;15.60;37.40;14.70;102067.00;;;;5048006;28;20132;-73
2022/03/08 07:08:39;;;;;;;3.90;2.65;;;15.60;37.30;14.70;102068.00;;;;5049361;28;20044;-72
2022/03/08 07:11:25;;;;;;;3.50;2.58;;;15.60;37.30;14.70;102067.00;;;;5052340;28;20041;-73
2022/03/08 07:14:15;;;;;;;5.13;2.58;;;15.60;37.30;14.70;102071.00;;;;5056933;28;20044;-72
2022/03/08 07:17:01;;;;;;;3.33;2.47;;;15.70;37.30;14.70;102080.00;;;;5054433;28;20040;-72
2022/03/08 07:19:47;;;;;;;3.47;2.90;;;15.60;37.30;14.70;102080.00;;;;5042690;28;20463;-72
2022/03/08 07:22:33;;;;;;;3.63;2.65;;;15.60;37.20;14.70;102078.00;;;;5050966;28;20044;-73
2022/03/08 07:25:20;;;;;;;4.18;2.55;;;15.70;37.30;14.70;102084.00;;;;5048335;28;20048;-72
2022/03/08 07:28:06;;;;;;;4.10;3.03;;;15.60;37.20;14.70;102088.00;;;;5027694;28;20045;-72
2022/03/08 07:30:52;;;;;;;7.90;2.80;;;15.70;37.20;14.70;102087.00;;;;5059233;28;20044;-73
2022/03/08 07:33:38;;;;;;;7.32;2.65;;;15.70;37.20;14.70;102084.00;;;;5055658;28;20036;-72
2022/03/08 07:36:24;;;;;;;9.45;3.33;;;15.70;37.20;14.70;102084.00;;;;5057682;28;20570;-73
2022/03/08 07:39:10;;;;;;;8.80;3.50;;;15.70;37.10;14.60;102082.00;;;;5053156;28;20040;-72
2022/03/08 07:41:56;;;;;;;7.10;2.95;;;15.70;37.00;14.60;102084.00;;;;5048961;28;20040;-73
2022/03/08 07:44:42;;;;;;;4.45;3.20;;;15.70;36.90;14.60;102081.00;;;;5038368;28;20535;-73
2022/03/08 07:47:28;;;;;;;5.75;3.28;;;15.60;36.70;14.60;102079.00;;;;5057705;28;20048;-72
2022/03/08 07:50:15;;;;;;;7.97;2.95;;;15.60;36.70;14.60;102086.00;;;;5053364;28;20645;-72
2022/03/08 07:53:01;;;;;;;8.98;2.78;;;15.60;36.70;14.60;102077.00;;;;5048383;28;20041;-72
2022/03/08 07:55:47;;;;;;;9.93;3.63;;;15.60;36.80;14.60;102089.00;;;;5054434;28;20429;-73
2022/03/08 07:58:37;;;;;;;6.65;2.83;;;15.60;36.80;14.60;102079.00;;;;5039510;28;20044;-72
2022/03/08 08:01:24;;;;;;;3.53;2.50;;;15.60;36.70;14.70;102080.00;;;;5052964;28;20079;-72
2022/03/08 08:04:10;;;;;;;4.60;2.78;;;15.60;36.70;14.70;102078.00;;;;5044751;28;20474;-73
2022/03/08 08:06:56;;;;;;;6.13;3.63;;;15.60;36.70;14.70;102075.00;;;;5054141;28;20040;-72
2022/03/08 08:09:42;;;;;;;4.03;2.60;;;15.70;36.70;14.70;102080.00;;;;5041854;28;20036;-72
2022/03/08 08:12:28;;;;;;;5.15;2.75;;;15.70;36.60;14.80;102086.00;;;;5055574;28;20195;-73
2022/03/08 08:15:14;;;;;;;4.10;2.70;;;15.70;36.60;14.80;102086.00;;;;5057446;28;20064;-72
2022/03/08 08:18:00;;;;;;;2.72;2.20;;;15.70;36.60;14.80;102071.00;;;;5055357;28;20037;-72
2022/03/08 08:20:46;;;;;;;23.55;6.47;;;15.70;36.60;14.80;102084.00;;;;5058059;28;20411;-72
2022/03/08 08:23:32;;;;;;;22.13;6.32;;;15.80;36.70;14.80;102078.00;;;;5054903;28;20064;-71
2022/03/08 08:26:19;;;;;;;231.48;45.22;;;15.80;36.60;14.80;102076.00;;;;5057567;28;20051;-72
2022/03/08 08:29:05;;;;;;;273.77;49.25;;;15.80;36.40;14.80;102078.00;;;;5055670;28;20041;-72
2022/03/08 08:31:51;;;;;;;364.02;73.38;;;15.90;36.30;14.80;102085.00;;;;5054438;28;20546;-71
2022/03/08 08:34:37;;;;;;;241.00;47.63;;;15.80;36.30;14.80;102079.00;;;;5058579;28;20059;-72
2022/03/08 08:37:23;;;;;;;193.32;42.97;;;15.80;36.30;14.70;102076.00;;;;5057306;28;20048;-72
2022/03/08 08:40:11;;;;;;;170.00;37.58;;;15.90;36.40;14.70;102073.00;;;;5054842;28;20056;-72
2022/03/08 08:42:57;;;;;;;;;;;15.80;36.20;14.70;102074.00;;;;5040219;28;20048;-72
2022/03/08 08:45:43;;;;;;;147.85;33.60;;;15.80;36.50;14.70;102077.00;;;;5039211;28;20424;-72
2022/03/08 08:48:29;;;;;;;282.38;70.00;;;15.80;36.30;14.70;102079.00;;;;5053507;28;20045;-72
2022/03/08 08:51:15;;;;;;;234.25;64.72;;;15.80;36.30;14.70;102068.00;;;;5040327;28;20080;-72
2022/03/08 08:54:01;;;;;;;189.43;45.30;;;15.80;36.30;14.70;102074.00;;;;5056850;28;20084;-72
2022/03/08 08:56:47;;;;;;;219.02;43.78;;;15.80;36.20;14.70;102070.00;;;;5051139;28;20070;-72
2022/03/08 08:59:33;;;;;;;409.80;76.55;;;15.70;36.20;14.70;102075.00;;;;5058832;28;20050;-71
2022/03/08 09:02:19;;;;;;;349.73;60.85;;;15.70;36.20;14.60;102074.00;;;;5052589;28;20391;-72
2022/03/08 09:05:06;;;;;;;292.33;50.38;;;15.80;36.30;14.70;102071.00;;;;5054054;28;20439;-73
2022/03/08 09:07:52;;;;;;;240.40;46.75;;;15.70;36.00;14.60;102070.00;;;;5056446;28;20041;-72
2022/03/08 09:10:38;;;;;;;188.13;38.97;;;15.70;36.10;14.60;102060.00;;;;5060885;28;20040;-72
2022/03/08 09:13:24;;;;;;;149.07;33.67;;;15.80;36.10;14.60;102055.00;;;;5054560;28;20044;-72
2022/03/08 09:16:10;;;;;;;140.55;30.55;;;15.70;36.00;14.60;102064.00;;;;5056996;28;20230;-72
2022/03/08 09:18:56;;;;;;;93.50;23.05;;;15.70;36.10;14.60;102063.00;;;;5059502;28;20044;-72
2022/03/08 09:21:42;;;;;;;101.55;21.70;;;15.70;36.10;14.60;102054.00;;;;5056138;28;20340;-71
2022/03/08 09:24:28;;;;;;;70.90;17.42;;;15.70;36.10;14.60;102058.00;;;;5053588;28;20563;-71
2022/03/08 09:27:15;;;;;;;62.88;14.40;;;15.70;36.00;14.50;102049.00;;;;5052509;28;20102;-72
2022/03/08 09:30:03;;;;;;;38.60;9.95;;;15.70;36.00;14.50;102053.00;;;;5052228;28;20041;-72
2022/03/08 09:32:49;;;;;;;26.05;8.05;;;15.70;35.70;14.50;102049.00;;;;5045497;28;20144;-72
2022/03/08 09:35:37;;;;;;;26.75;6.63;;;15.70;35.60;14.40;102049.00;;;;5059889;28;20490;-72
2022/03/08 09:38:23;;;;;;;34.22;8.82;;;15.70;35.70;14.40;102041.00;;;;5056986;28;20063;-71
2022/03/08 09:41:09;;;;;;;29.65;7.45;;;15.60;35.90;14.40;102045.00;;;;5054411;28;20041;-71
2022/03/08 09:43:55;;;;;;;25.88;7.00;;;15.60;35.80;14.40;102049.00;;;;5022351;28;20053;-72
2022/03/08 09:46:41;;;;;;;18.38;5.20;;;15.60;35.90;14.30;102040.00;;;;5056929;28;20041;-72
2022/03/08 09:49:27;;;;;;;15.88;5.40;;;15.60;35.90;14.30;102048.00;;;;5043901;28;20041;-71
2022/03/08 09:52:13;;;;;;;15.15;4.82;;;15.50;35.80;14.30;102044.00;;;;5039994;28;20048;-71
2022/03/08 09:54:59;;;;;;;14.80;5.07;;;15.50;35.50;14.30;102031.00;;;;5055340;28;20138;-71
2022/03/08 09:57:48;;;;;;;15.15;4.45;;;15.50;35.80;14.30;102025.00;;;;5055710;28;20072;-72
2022/03/08 10:00:34;;;;;;;;;;;15.50;35.80;14.30;102026.00;;;;5056018;28;20406;-71
2022/03/08 10:03:23;;;;;;;8.27;3.42;;;15.50;36.00;14.30;102020.00;;;;5054091;28;20007;-72
2022/03/08 10:06:10;;;;;;;14.93;4.40;;;15.50;35.80;14.30;102011.00;;;;5041596;28;20482;-73
2022/03/08 10:09:13;;;;;;;4.72;3.85;;;15.50;35.80;14.30;102014.00;;;;5029437;28;20048;-72
2022/03/08 10:11:59;;;;;;;9.45;4.32;;;15.50;35.30;14.30;102021.00;;;;5055538;28;20370;-72
2022/03/08 10:14:45;;;;;;;7.90;3.97;;;15.50;35.60;14.30;102004.00;;;;5058151;28;20040;-72
2022/03/08 10:17:39;;;;;;;11.43;3.65;;;15.50;35.80;14.30;102003.00;;;;5054228;28;20110;-72
2022/03/08 10:20:30;;;;;;;9.00;3.45;;;15.50;35.80;14.40;101999.00;;;;5052526;28;20067;-72
2022/03/08 10:23:16;;;;;;;14.20;3.88;;;15.50;35.80;14.40;102000.00;;;;5056817;28;20041;-72
2022/03/08 10:26:04;;;;;;;6.43;3.55;;;15.50;35.80;14.40;101990.00;;;;5053857;28;20052;-72
2022/03/08 10:28:53;;;;;;;6.78;3.70;;;15.50;35.80;14.40;101986.00;;;;5053122;28;20040;-73
2022/03/08 10:31:39;;;;;;;5.15;3.20;;;15.50;36.00;14.40;101986.00;;;;5048057;28;20040;-72
2022/03/08 10:34:28;;;;;;;7.53;3.90;;;15.60;35.70;14.40;101973.00;;;;5040770;28;20098;-72
2022/03/08 10:37:19;;;;;;;5.47;3.17;;;15.50;35.90;14.50;101983.00;;;;5037054;28;20542;-72
2022/03/08 10:40:09;;;;;;;6.05;3.10;;;15.60;35.90;14.50;101974.00;;;;5058115;28;20154;-72
2022/03/08 10:43:04;;;;;;;8.77;2.95;;;15.60;36.10;14.50;101981.00;;;;5042613;28;20083;-72
2022/03/08 10:45:50;;;;;;;4.80;3.20;;;15.60;35.60;14.40;101971.00;;;;5041650;28;20037;-72
2022/03/08 10:48:37;;;;;;;6.13;3.38;;;15.60;35.60;14.40;101960.00;;;;5059968;28;20044;-72
2022/03/08 10:51:23;;;;;;;3.58;2.70;;;15.60;35.60;14.40;101953.00;;;;5057730;28;20036;-72
2022/03/08 10:54:13;;;;;;;4.38;3.00;;;15.60;35.60;14.50;101959.00;;;;5057257;28;20842;-72
2022/03/08 10:56:59;;;;;;;4.55;2.97;;;15.60;35.60;14.50;101956.00;;;;5044255;28;20586;-72
2022/03/08 10:59:55;;;;;;;3.90;2.90;;;15.60;35.70;14.50;101955.00;;;;5041427;28;20525;-72
2022/03/08 11:02:49;;;;;;;4.55;2.53;;;15.60;35.70;14.50;101950.00;;;;5034587;28;20394;-72
2022/03/08 11:05:49;;;;;;;6.53;2.92;;;15.70;35.70;14.50;101957.00;;;;5038877;28;20044;-72
2022/03/08 11:08:35;;;;;;;4.78;2.47;;;15.70;35.70;14.50;101941.00;;;;5053729;28;20143;-72
2022/03/08 11:11:21;;;;;;;3.35;2.78;;;15.70;35.70;14.60;101939.00;;;;5041045;28;20041;-72
2022/03/08 11:14:08;;;;;;;4.15;2.55;;;15.70;35.20;14.60;101941.00;;;;5052498;28;20041;-72
2022/03/08 11:16:54;;;;;;;3.30;2.30;;;15.70;35.50;14.60;101936.00;;;;5051388;28;20091;-76
2022/03/08 11:19:40;;;;;;;4.30;2.53;;;15.70;35.50;14.60;101927.00;;;;5034446;28;20032;-75
2022/03/08 11:22:26;;;;;;;4.05;2.50;;;15.70;35.60;14.60;101934.00;;;;5024105;28;20045;-75
2022/03/08 11:25:14;;;;;;;4.43;3.08;;;15.70;35.50;14.70;101919.00;;;;5032914;28;20036;-75
2022/03/08 11:28:02;;;;;;;5.35;2.63;;;15.80;35.70;14.70;101925.00;;;;5040640;28;20052;-75
2022/03/08 11:30:54;;;;;;;3.88;2.72;;;15.80;35.60;14.70;101913.00;;;;5049175;28;20489;-75
2022/03/08 11:34:06;;;;;;;4.32;2.78;;;15.80;35.60;14.70;101914.00;;;;5035583;28;20040;-75
2022/03/08 11:37:07;;;;;;;5.15;2.70;;;15.80;36.20;14.80;101913.00;;;;5030692;28;20076;-75
2022/03/08 11:40:11;;;;;;;4.95;2.25;;;15.90;35.50;14.80;101914.00;;;;5023618;28;20094;-75
2022/03/08 11:43:03;;;;;;;5.07;1.98;;;15.90;35.50;14.80;101912.00;;;;5057577;28;20102;-75
2022/03/08 11:45:50;;;;;;;3.55;2.60;;;15.90;35.50;14.80;101911.00;;;;5058599;28;20048;-75
2022/03/08 11:48:56;;;;;;;4.20;2.47;;;16.00;35.10;14.80;101914.00;;;;5062216;28;20045;-75
2022/03/08 11:51:42;;;;;;;4.18;2.60;;;16.00;35.20;14.80;101906.00;;;;5048381;28;20036;-75
2022/03/08 11:54:28;;;;;;;4.63;2.25;;;16.00;35.10;14.80;101898.00;;;;5060577;28;20036;-76
2022/03/08 11:57:17;;;;;;;3.22;2.00;;;16.00;35.10;14.80;101900.00;;;;5061144;28;20041;-75
2022/03/08 12:00:32;;;;;;;315.83;228.05;;;16.00;35.10;14.80;101885.00;;;;5061622;28;20549;-74
2022/03/08 12:03:24;;;;;;;52.88;36.03;;;16.00;35.10;14.90;101898.00;;;;5056532;28;20526;-75
2022/03/08 12:06:12;;;;;;;34.28;17.15;;;16.00;35.10;14.90;101890.00;;;;5057414;28;20041;-75
2022/03/08 12:09:00;;;;;;;;;;;16.00;35.20;14.90;101889.00;;;;5041282;28;20053;-75
2022/03/08 12:12:02;;;;;;;152.75;98.60;;;16.10;35.60;15.00;101881.00;;;;5055746;28;19938;-75